Terminal Aerodrome Forecast
Issued by NWS

Home | Current Version | Previous Version | Text Only | Print | Product List | Glossary On
Versions: 1 2 3 4 5 6 7 8 9 10 11 12 13 14 15 16
000
FTUS45 KVEF 170500
TAFEED
TAF
KEED 170526Z 1706/1806 24005KT P6SM BKN250
     FM171200 VRB05KT P6SM BKN250
     FM171900 09006KT P6SM FEW100 SCT250
     FM180400 24006KT P6SM FEW100 BKN250=

USA.gov is the U.S. government's official web portal to all federal, state and local government web resources and services.